Aérodrome :
LOGIN :

S'inscrire | Disclaimer

   EN    FR    IT 

 










Légende :    VFR   VFR Marginal   IFR   IFR Intensif   IFR Très Intensif
Visi : 
Plafond : 
>= 8 km
>= 3000ft
5 à 8 km
1000 à 3000 ft
1500m à 5 km
500 à 1000 ft
800 à 1500m
200 à 500 ft
< 800m
< 200 ft
Symboles :   Orages  Brouillard  Fortes neiges  Fortes précipitations  Vent > 20 kt
SIGMETs :   Divers  Orages  Givrage  Turbulence  Onde Orograph.  Cendres Volcan.







- Altitude de l'aérodrome : 989 ft
- Code IATA : TRN


LIMF - Torino Caselle

DERNIER METAR :
  • 210050Z 29007KT 9999 BKN090 16/09 Q1017

METARs EXPIRÉS :
  • 210020Z 30009KT 9999 BKN050 16/09 Q1017
  • 202350Z 31009KT 9999 BKN090 16/10 Q1017
  • 202320Z 31012KT 9999 BKN040 15/11 Q1017
  • 202250Z 31012KT 9999 BKN075 15/13 Q1017
  • 202220Z 30007KT 9999 BKN040 16/14 Q1018 RETS

TAF TAF LIMF
Valide du 21 à 00h jusqu'au 22 à 00h UTC


202300Z 2100/2124 VRB05KT 9999 BKN050
TEMPO 2100/2106 4000 TSRA
Pas de NOTAMs connus pour ce terrain.
1 SIGMET publié pour la FIR Milano (LIMM) :
 
Orages noyés dans la masse
LIMM SIGMET 1 VALID 210105/210505 LIIP
LIMM MILANO FIR EMBD TS FCST WI N4606 E00903 - N4625 E00827 - N4553 E00645 - N4406 E00652 - N4359 E00733 - N4429 E00847 - N4442 E00916 - N4606 E00903 TOP FL320 STNR NC=



MET'MAP, la Météo Aéronautique d'un coup d'oeil ! - Copyright ORBIFLY Décembre 2007 - Disclaimer

ORBIFLY MET'MAP TEAM :

Programmation & Développement : Alexandra Zaïnal
Conception & Développement : Baudouin d'Aumeries
Co-Programmation & Développement : Marc-Olivier Méhu
Soutien technique & logistique : Manuel Goepfert

Contact : metmap@orbifly.com




SOURCES & CREDITS :

   NOAA